createdAt,value
2018-09-29T00:00:36.548Z,3.20
2018-09-29T00:03:05.048Z,2.47
2018-09-29T00:05:33.466Z,2.98
2018-09-29T00:08:01.946Z,2.10
2018-09-29T00:10:30.388Z,2.17
2018-09-29T00:12:58.773Z,2.85
2018-09-29T00:15:27.167Z,2.95
2018-09-29T00:17:55.563Z,2.40
2018-09-29T00:20:23.993Z,2.45
2018-09-29T00:22:52.504Z,2.27
2018-09-29T00:25:21.638Z,2.65
2018-09-29T00:27:50.035Z,2.70
2018-09-29T00:30:18.486Z,2.45
2018-09-29T00:32:46.936Z,3.12
2018-09-29T00:35:15.349Z,2.50
2018-09-29T00:37:44.973Z,2.15
2018-09-29T00:40:13.630Z,2.65
2018-09-29T00:42:42.002Z,3.75
2018-09-29T00:45:10.544Z,2.40
2018-09-29T00:47:38.921Z,2.35
2018-09-29T00:50:07.386Z,2.65
2018-09-29T00:52:35.802Z,2.83
2018-09-29T00:55:04.212Z,2.10
2018-09-29T00:57:32.596Z,2.75
2018-09-29T01:00:01.009Z,2.80
2018-09-29T01:02:29.375Z,2.20
2018-09-29T01:04:57.815Z,2.58
2018-09-29T01:07:26.202Z,1.65
2018-09-29T01:09:54.574Z,1.90
2018-09-29T01:12:23.012Z,2.25
2018-09-29T01:14:52.456Z,1.92
2018-09-29T01:17:20.875Z,2.08
2018-09-29T01:19:49.296Z,1.60
2018-09-29T01:22:18.491Z,2.52
2018-09-29T01:24:47.706Z,2.40
2018-09-29T01:27:16.101Z,2.87
2018-09-29T01:29:44.473Z,2.00
2018-09-29T01:32:12.879Z,2.33
2018-09-29T01:34:41.768Z,2.20
2018-09-29T01:37:10.131Z,2.22
2018-09-29T01:39:38.507Z,2.12
2018-09-29T01:42:06.927Z,3.12
2018-09-29T01:44:35.353Z,1.80
2018-09-29T01:47:03.830Z,1.95
2018-09-29T01:49:32.230Z,2.58
2018-09-29T01:52:00.651Z,1.95
2018-09-29T01:54:29.070Z,1.47
2018-09-29T01:56:57.458Z,2.08
2018-09-29T01:59:25.912Z,1.85
2018-09-29T02:01:54.364Z,1.95
2018-09-29T02:04:22.798Z,1.90
2018-09-29T02:06:51.173Z,2.30
2018-09-29T02:09:19.550Z,2.47
2018-09-29T02:11:47.960Z,1.85
2018-09-29T02:14:16.363Z,2.67
2018-09-29T02:16:44.774Z,2.35
2018-09-29T02:19:13.986Z,2.58
2018-09-29T02:21:42.358Z,1.80
2018-09-29T02:24:10.820Z,2.70
2018-09-29T02:26:39.282Z,2.25
2018-09-29T02:29:07.691Z,1.85
2018-09-29T02:31:36.423Z,2.30
2018-09-29T02:34:04.853Z,2.15
2018-09-29T02:36:33.273Z,2.00
2018-09-29T02:39:01.732Z,2.55
2018-09-29T02:41:30.216Z,2.50
2018-09-29T02:43:59.419Z,2.15
2018-09-29T02:46:27.866Z,1.80
2018-09-29T02:48:57.022Z,1.92
2018-09-29T02:51:25.415Z,2.10
2018-09-29T02:53:53.806Z,2.75
2018-09-29T02:56:22.217Z,1.85
2018-09-29T02:58:50.843Z,2.08
2018-09-29T03:01:19.251Z,1.82
2018-09-29T03:03:47.597Z,1.85
2018-09-29T03:06:16.032Z,2.15
2018-09-29T03:08:45.027Z,1.70
2018-09-29T03:11:13.397Z,2.25
2018-09-29T03:13:41.803Z,1.70
2018-09-29T03:16:10.227Z,1.80
2018-09-29T03:18:38.630Z,3.08
2018-09-29T03:21:07.043Z,2.12
2018-09-29T03:23:35.448Z,1.95
2018-09-29T03:26:03.835Z,2.17
2018-09-29T03:28:32.222Z,2.00
2018-09-29T03:31:00.719Z,1.57
2018-09-29T03:33:29.171Z,2.30
2018-09-29T03:35:57.960Z,2.00
2018-09-29T03:38:26.331Z,2.02
2018-09-29T03:40:55.008Z,2.10
2018-09-29T03:43:23.446Z,1.60
2018-09-29T03:45:51.954Z,2.22
2018-09-29T03:48:20.365Z,1.40
2018-09-29T03:50:48.827Z,1.90
2018-09-29T03:53:17.298Z,1.75
2018-09-29T03:55:45.724Z,1.95
2018-09-29T03:58:14.356Z,2.60
2018-09-29T04:00:42.824Z,2.17
2018-09-29T04:03:11.218Z,1.90
2018-09-29T04:05:40.326Z,2.40
2018-09-29T04:08:08.793Z,1.87
2018-09-29T04:10:37.204Z,3.10
2018-09-29T04:13:05.587Z,2.17
2018-09-29T04:15:34.529Z,2.05
2018-09-29T04:18:02.955Z,2.00
2018-09-29T04:20:31.471Z,2.12
2018-09-29T04:22:59.843Z,1.98
2018-09-29T04:25:29.017Z,1.90
2018-09-29T04:27:57.501Z,2.52
2018-09-29T04:30:25.896Z,2.08
2018-09-29T04:32:54.260Z,2.10
2018-09-29T04:35:23.298Z,2.12
2018-09-29T04:37:51.763Z,2.00
2018-09-29T04:40:20.235Z,2.30
2018-09-29T04:42:48.635Z,2.10
2018-09-29T04:45:17.178Z,2.17
2018-09-29T04:47:46.132Z,2.10
2018-09-29T04:50:14.494Z,2.10
2018-09-29T04:52:42.921Z,2.55
2018-09-29T04:55:11.315Z,1.80
2018-09-29T04:57:39.709Z,1.60
2018-09-29T05:00:08.123Z,2.30
2018-09-29T05:02:36.584Z,2.20
2018-09-29T05:05:05.859Z,2.20
2018-09-29T05:07:34.264Z,2.12
2018-09-29T05:10:02.772Z,2.45
2018-09-29T05:12:31.185Z,1.80
2018-09-29T05:14:59.602Z,2.55
2018-09-29T05:17:27.982Z,1.90
2018-09-29T05:19:56.444Z,2.30
2018-09-29T05:22:24.813Z,2.87
2018-09-29T05:24:53.255Z,2.50
2018-09-29T05:27:21.635Z,2.10
2018-09-29T05:29:50.146Z,2.30
2018-09-29T05:32:18.546Z,2.35
2018-09-29T05:34:46.925Z,2.50
2018-09-29T05:37:15.338Z,2.92
2018-09-29T05:39:43.728Z,2.02
2018-09-29T05:42:12.268Z,2.37
2018-09-29T05:44:40.660Z,2.27
2018-09-29T05:47:09.583Z,3.00
2018-09-29T05:49:38.073Z,1.98
2018-09-29T05:52:06.426Z,2.50
2018-09-29T05:54:34.870Z,2.30
2018-09-29T05:57:03.465Z,2.30
2018-09-29T05:59:31.918Z,2.05
2018-09-29T06:02:00.385Z,2.30
2018-09-29T06:04:29.606Z,2.12
2018-09-29T06:06:58.018Z,2.40
2018-09-29T06:09:26.354Z,2.60
2018-09-29T06:11:54.780Z,2.10
2018-09-29T06:14:23.172Z,2.55
2018-09-29T06:16:51.866Z,2.67
2018-09-29T06:19:20.282Z,2.45
2018-09-29T06:21:49.394Z,2.50
2018-09-29T06:24:17.755Z,2.60
2018-09-29T06:26:46.169Z,2.67
2018-09-29T06:29:14.546Z,3.20
2018-09-29T06:31:42.985Z,2.87
2018-09-29T06:34:11.437Z,2.70
2018-09-29T06:36:39.807Z,2.70
2018-09-29T06:39:09.939Z,2.92
2018-09-29T06:41:38.410Z,3.22
2018-09-29T06:44:07.002Z,2.67
2018-09-29T06:46:35.374Z,3.00
2018-09-29T06:49:03.860Z,2.00
2018-09-29T06:51:32.573Z,2.15
2018-09-29T06:54:01.345Z,2.83
2018-09-29T06:56:29.780Z,2.50
2018-09-29T06:58:58.940Z,2.65
2018-09-29T07:01:27.348Z,2.25
2018-09-29T07:03:56.347Z,2.30
2018-09-29T07:06:24.727Z,2.60
2018-09-29T07:08:53.264Z,2.20
2018-09-29T07:11:21.706Z,2.75
2018-09-29T07:13:50.198Z,3.10
2018-09-29T07:16:18.620Z,2.90
2018-09-29T07:18:47.011Z,2.10
2018-09-29T07:21:15.607Z,2.62
2018-09-29T07:23:44.074Z,2.77
2018-09-29T07:26:12.535Z,3.00
2018-09-29T07:28:41.030Z,2.80
2018-09-29T07:31:09.995Z,2.15
2018-09-29T07:33:38.713Z,3.00
2018-09-29T07:36:08.135Z,3.72
2018-09-29T07:38:36.926Z,2.60
2018-09-29T07:41:05.402Z,2.62
2018-09-29T07:43:33.804Z,3.35
2018-09-29T07:46:02.298Z,2.22
2018-09-29T07:48:30.810Z,2.60
2018-09-29T07:50:59.280Z,2.60
2018-09-29T07:53:27.728Z,2.10
2018-09-29T07:55:56.293Z,2.47
2018-09-29T07:58:24.702Z,2.87
2018-09-29T08:00:53.128Z,3.25
2018-09-29T08:03:21.640Z,1.82
2018-09-29T08:05:49.994Z,2.12
2018-09-29T08:08:18.442Z,2.85
2018-09-29T08:10:46.935Z,1.65
2018-09-29T08:13:15.328Z,2.10
2018-09-29T08:15:43.720Z,2.23
2018-09-29T08:18:12.138Z,2.35
2018-09-29T08:20:40.558Z,2.90
2018-09-29T08:23:09.036Z,2.25
2018-09-29T08:25:37.446Z,2.37
2018-09-29T08:28:05.943Z,2.00
2018-09-29T08:30:35.155Z,2.00
2018-09-29T08:33:03.866Z,2.23
2018-09-29T08:35:32.328Z,2.43
2018-09-29T08:38:00.689Z,2.13
2018-09-29T08:40:29.131Z,2.00
2018-09-29T08:42:57.533Z,2.63
2018-09-29T08:45:25.991Z,2.40
2018-09-29T08:47:54.495Z,2.60
2018-09-29T08:50:22.872Z,2.00
2018-09-29T08:52:51.344Z,2.80
2018-09-29T08:55:19.758Z,2.80
2018-09-29T08:57:48.197Z,4.20
2018-09-29T09:00:16.581Z,2.30
2018-09-29T09:02:45.046Z,2.37
2018-09-29T09:05:13.459Z,2.73
2018-09-29T09:07:41.907Z,2.37
2018-09-29T09:10:10.298Z,2.70
2018-09-29T09:12:38.686Z,3.30
2018-09-29T09:15:07.228Z,2.60
2018-09-29T09:17:35.628Z,2.57
2018-09-29T09:20:04.088Z,2.90
2018-09-29T09:22:32.460Z,3.00
2018-09-29T09:25:01.011Z,3.57
2018-09-29T09:27:29.387Z,3.40
2018-09-29T09:29:57.911Z,3.33
2018-09-29T09:32:26.244Z,3.10
2018-09-29T09:34:54.636Z,2.93
2018-09-29T09:37:23.069Z,3.10
2018-09-29T09:39:51.642Z,3.80
2018-09-29T09:42:20.025Z,3.10
2018-09-29T09:44:48.578Z,3.43
2018-09-29T09:47:17.145Z,3.03
2018-09-29T09:49:45.580Z,2.40
2018-09-29T09:52:15.137Z,3.33
2018-09-29T09:54:43.696Z,2.50
2018-09-29T09:57:12.111Z,2.93
2018-09-29T09:59:40.511Z,2.73
2018-09-29T10:02:14.322Z,2.27
2018-09-29T10:04:42.791Z,3.80
2018-09-29T10:07:11.243Z,3.20
2018-09-29T10:09:39.628Z,2.40
2018-09-29T10:12:08.024Z,2.50
2018-09-29T10:14:36.490Z,2.03
2018-09-29T10:17:04.927Z,2.33
2018-09-29T10:19:33.340Z,2.07
2018-09-29T10:22:02.321Z,2.33
2018-09-29T10:24:31.524Z,2.93
2018-09-29T10:26:59.940Z,1.90
2018-09-29T10:29:28.395Z,2.20
2018-09-29T10:31:57.485Z,2.83
2018-09-29T10:34:25.929Z,1.53
2018-09-29T10:36:54.293Z,1.70
2018-09-29T10:39:22.787Z,2.50
2018-09-29T10:41:51.163Z,2.10
2018-09-29T10:44:19.808Z,2.63
2018-09-29T10:46:48.167Z,1.90
2018-09-29T10:49:16.605Z,2.37
2018-09-29T10:51:45.437Z,2.40
2018-09-29T10:54:13.984Z,2.03
2018-09-29T10:56:42.543Z,2.00
2018-09-29T10:59:10.959Z,2.40
2018-09-29T11:01:40.133Z,1.80
2018-09-29T11:04:08.597Z,2.00
2018-09-29T11:06:37.009Z,2.10
2018-09-29T11:09:08.263Z,1.70
2018-09-29T11:11:36.673Z,1.73
2018-09-29T11:14:05.214Z,2.30
2018-09-29T11:16:33.659Z,1.97
2018-09-29T11:19:02.092Z,2.13
2018-09-29T11:21:31.072Z,2.33
2018-09-29T11:23:59.468Z,2.00
2018-09-29T11:26:27.922Z,2.00
2018-09-29T11:28:56.276Z,2.00
2018-09-29T11:31:24.705Z,2.33
2018-09-29T11:33:53.101Z,2.60
2018-09-29T11:36:21.492Z,2.17
2018-09-29T11:38:49.887Z,2.23
2018-09-29T11:41:18.289Z,1.50
2018-09-29T11:43:46.699Z,2.50
2018-09-29T11:46:15.206Z,2.13
2018-09-29T11:48:43.608Z,2.57
2018-09-29T11:51:12.021Z,2.23
2018-09-29T11:53:40.432Z,2.53
2018-09-29T11:56:08.852Z,2.20
2018-09-29T11:58:37.142Z,2.47
2018-09-29T12:01:05.572Z,2.10
2018-09-29T12:03:34.091Z,1.90
2018-09-29T12:06:02.626Z,1.80
2018-09-29T12:08:30.931Z,2.00
2018-09-29T12:10:59.280Z,2.30
2018-09-29T12:13:27.762Z,2.13
2018-09-29T12:15:56.183Z,1.93
2018-09-29T12:18:24.685Z,2.50
2018-09-29T12:20:53.039Z,1.73
2018-09-29T12:23:21.444Z,2.00
2018-09-29T12:25:49.848Z,1.80
2018-09-29T12:28:18.226Z,3.30
2018-09-29T12:30:46.758Z,2.50
2018-09-29T12:33:15.142Z,2.00
2018-09-29T12:35:44.205Z,2.10
2018-09-29T12:38:12.631Z,2.33
2018-09-29T12:40:41.015Z,1.50
2018-09-29T12:43:09.428Z,1.90
2018-09-29T12:45:37.833Z,1.87
2018-09-29T12:48:06.367Z,2.47
2018-09-29T12:50:34.812Z,1.90
2018-09-29T12:53:03.178Z,2.00
2018-09-29T12:55:32.159Z,1.60
2018-09-29T12:58:00.559Z,2.20
2018-09-29T13:00:29.510Z,2.30
2018-09-29T13:02:57.893Z,1.40
2018-09-29T13:05:26.296Z,2.13
2018-09-29T13:07:54.627Z,2.53
2018-09-29T13:10:23.027Z,2.20
2018-09-29T13:12:51.431Z,1.87
2018-09-29T13:15:19.778Z,1.60
2018-09-29T13:17:48.194Z,1.90
2018-09-29T13:20:16.613Z,1.53
2018-09-29T13:22:45.045Z,1.83
2018-09-29T13:25:14.039Z,2.30
2018-09-29T13:27:42.430Z,1.90
2018-09-29T13:30:10.823Z,2.20
2018-09-29T13:32:40.075Z,1.60
2018-09-29T13:35:08.511Z,2.00
2018-09-29T13:37:36.891Z,1.70
2018-09-29T13:40:05.343Z,1.43
2018-09-29T13:42:34.443Z,1.77
2018-09-29T13:45:03.691Z,2.10
2018-09-29T13:47:32.105Z,1.83
2018-09-29T13:50:00.494Z,1.73
2018-09-29T13:52:29.200Z,1.70
2018-09-29T13:54:57.619Z,1.90
2018-09-29T13:57:26.004Z,1.73
2018-09-29T13:59:54.397Z,1.50
2018-09-29T14:02:22.818Z,1.43
2018-09-29T14:04:51.149Z,2.43
2018-09-29T14:07:19.515Z,1.53
2018-09-29T14:09:47.868Z,1.57
2018-09-29T14:12:16.342Z,1.97
2018-09-29T14:14:44.763Z,2.20
2018-09-29T14:17:13.326Z,2.20
2018-09-29T14:19:41.737Z,1.90
2018-09-29T14:22:10.108Z,2.50
2018-09-29T14:24:39.196Z,1.70
2018-09-29T14:27:07.564Z,2.00
2018-09-29T14:29:36.073Z,1.60
2018-09-29T14:32:04.482Z,1.40
2018-09-29T14:34:32.871Z,2.00
2018-09-29T14:37:01.314Z,2.20
2018-09-29T14:39:30.320Z,2.30
2018-09-29T14:41:58.739Z,1.60
2018-09-29T14:44:27.130Z,1.53
2018-09-29T14:46:55.542Z,1.70
2018-09-29T14:49:23.940Z,1.77
2018-09-29T14:51:52.336Z,1.80
2018-09-29T14:54:20.744Z,1.57
2018-09-29T14:56:49.179Z,1.67
2018-09-29T14:59:17.523Z,1.40
2018-09-29T15:01:46.215Z,1.97
2018-09-29T15:04:14.613Z,1.60
2018-09-29T15:06:42.983Z,1.77
2018-09-29T15:09:12.373Z,1.87
2018-09-29T15:11:40.951Z,2.07
2018-09-29T15:14:10.093Z,1.97
2018-09-29T15:16:38.683Z,2.03
2018-09-29T15:19:07.722Z,1.90
2018-09-29T15:21:36.134Z,1.20
2018-09-29T15:24:04.567Z,2.00
2018-09-29T15:26:32.939Z,1.80
2018-09-29T15:29:01.626Z,1.77
2018-09-29T15:31:29.989Z,2.30
2018-09-29T15:33:58.378Z,2.00
2018-09-29T15:36:26.710Z,2.23
2018-09-29T15:38:55.595Z,1.70
2018-09-29T15:41:24.006Z,1.93
2018-09-29T15:43:52.458Z,2.00
2018-09-29T15:46:20.881Z,1.80
2018-09-29T15:48:49.464Z,2.83
2018-09-29T15:51:17.843Z,1.40
2018-09-29T15:53:46.362Z,2.03
2018-09-29T15:56:14.773Z,1.80
2018-09-29T15:58:43.205Z,2.00
2018-09-29T16:01:11.595Z,1.80
2018-09-29T16:03:40.028Z,1.70
2018-09-29T16:06:09.668Z,1.60
2018-09-29T16:08:38.036Z,2.10
2018-09-29T16:11:07.216Z,1.73
2018-09-29T16:13:35.678Z,2.30
2018-09-29T16:16:04.204Z,1.40
2018-09-29T16:18:32.585Z,2.00
2018-09-29T16:21:01.739Z,1.97
2018-09-29T16:23:30.179Z,1.80
2018-09-29T16:25:58.691Z,2.17
2018-09-29T16:28:27.052Z,1.40
2018-09-29T16:30:55.464Z,2.10
2018-09-29T16:33:23.810Z,2.13
2018-09-29T16:35:52.214Z,1.80
2018-09-29T16:38:20.636Z,1.50
2018-09-29T16:40:48.933Z,1.77
2018-09-29T16:43:17.351Z,1.90
2018-09-29T16:45:47.302Z,1.80
2018-09-29T16:48:15.709Z,1.77
2018-09-29T16:50:44.127Z,1.80
2018-09-29T16:53:12.535Z,2.47
2018-09-29T16:55:40.976Z,2.77
2018-09-29T16:58:09.425Z,2.10
2018-09-29T17:00:37.835Z,2.07
2018-09-29T17:03:06.302Z,2.30
2018-09-29T17:05:34.801Z,2.53
2018-09-29T17:08:03.423Z,3.87
2018-09-29T17:10:31.879Z,2.57
2018-09-29T17:13:00.300Z,2.60
2018-09-29T17:15:28.754Z,3.00
2018-09-29T17:17:57.167Z,2.93
2018-09-29T17:20:25.593Z,2.73
2018-09-29T17:22:54.476Z,3.30
2018-09-29T17:25:22.919Z,3.30
2018-09-29T17:27:51.287Z,3.13
2018-09-29T17:30:19.681Z,2.90
2018-09-29T17:32:48.119Z,2.63
2018-09-29T17:35:16.486Z,2.97
2018-09-29T17:37:44.883Z,3.30
2018-09-29T17:40:13.262Z,3.23
2018-09-29T17:42:41.707Z,3.67
2018-09-29T17:45:10.107Z,3.27
2018-09-29T17:47:38.530Z,3.80
2018-09-29T17:50:07.930Z,4.17
2018-09-29T17:52:36.367Z,4.17
2018-09-29T17:55:04.812Z,5.77
2018-09-29T17:57:33.227Z,4.80
2018-09-29T18:00:01.654Z,5.40
2018-09-29T18:02:30.147Z,4.50
2018-09-29T18:04:58.558Z,5.43
2018-09-29T18:07:26.972Z,4.30
2018-09-29T18:09:55.387Z,4.40
2018-09-29T18:12:23.772Z,4.40
2018-09-29T18:14:52.172Z,5.37
2018-09-29T18:17:20.619Z,4.90
2018-09-29T18:19:49.054Z,4.23
2018-09-29T18:22:17.523Z,4.60
2018-09-29T18:24:45.936Z,4.90
2018-09-29T18:27:14.382Z,5.30
2018-09-29T18:29:42.910Z,4.00
2018-09-29T18:32:11.643Z,4.43
2018-09-29T18:34:40.126Z,5.73
2018-09-29T18:37:08.627Z,4.67
2018-09-29T18:39:37.148Z,5.27
2018-09-29T18:42:05.574Z,4.07
2018-09-29T18:44:34.079Z,5.93
2018-09-29T18:47:02.571Z,6.27
2018-09-29T18:49:31.076Z,6.77
2018-09-29T18:51:59.865Z,6.20
2018-09-29T18:54:28.354Z,5.37
2018-09-29T18:56:56.794Z,5.20
2018-09-29T18:59:25.287Z,5.30
2018-09-29T19:01:53.875Z,5.60
2018-09-29T19:04:22.354Z,4.87
2018-09-29T19:06:50.716Z,5.70
2018-09-29T19:09:19.212Z,4.80
2018-09-29T19:11:47.622Z,5.23
2018-09-29T19:14:15.995Z,5.00
2018-09-29T19:16:44.498Z,4.33
2018-09-29T19:19:12.921Z,5.47
2018-09-29T19:21:41.303Z,4.87
2018-09-29T19:24:09.814Z,5.03
2018-09-29T19:26:38.264Z,5.60
2018-09-29T19:29:06.788Z,5.50
2018-09-29T19:31:35.263Z,4.87
2018-09-29T19:34:03.732Z,5.63
2018-09-29T19:36:32.367Z,4.97
2018-09-29T19:39:00.875Z,4.93
2018-09-29T19:41:29.400Z,5.40
2018-09-29T19:43:57.866Z,5.00
2018-09-29T19:46:26.325Z,4.23
2018-09-29T19:48:54.749Z,3.83
2018-09-29T19:51:23.234Z,3.87
2018-09-29T19:53:51.679Z,4.17
2018-09-29T19:56:20.198Z,4.90
2018-09-29T19:58:48.697Z,3.77
2018-09-29T20:01:17.132Z,4.50
2018-09-29T20:03:45.617Z,4.63
2018-09-29T20:06:14.011Z,6.57
2018-09-29T20:08:42.516Z,6.60
2018-09-29T20:11:10.899Z,4.47
2018-09-29T20:13:39.334Z,4.30
2018-09-29T20:16:08.067Z,4.10
2018-09-29T20:18:36.483Z,5.10
2018-09-29T20:21:04.916Z,3.97
2018-09-29T20:23:33.486Z,4.23
2018-09-29T20:26:01.934Z,4.67
2018-09-29T20:28:30.338Z,3.73
2018-09-29T20:30:58.800Z,4.10
2018-09-29T20:33:27.356Z,4.07
2018-09-29T20:35:56.130Z,3.80
2018-09-29T20:38:24.571Z,4.28
2018-09-29T20:40:52.998Z,4.03
2018-09-29T20:43:21.391Z,4.40
2018-09-29T20:45:49.956Z,4.43
2018-09-29T20:48:18.378Z,3.60
2018-09-29T20:50:46.817Z,3.53
2018-09-29T20:53:15.215Z,3.67
2018-09-29T20:55:43.686Z,4.05
2018-09-29T20:58:12.134Z,4.10
2018-09-29T21:00:40.582Z,4.12
2018-09-29T21:03:08.953Z,3.35
2018-09-29T21:05:37.420Z,3.90
2018-09-29T21:08:05.879Z,4.15
2018-09-29T21:10:34.282Z,4.17
2018-09-29T21:13:02.812Z,4.33
2018-09-29T21:15:31.116Z,3.45
2018-09-29T21:17:59.579Z,4.47
2018-09-29T21:20:28.190Z,3.50
2018-09-29T21:22:56.683Z,3.30
2018-09-29T21:25:25.178Z,3.52
2018-09-29T21:30:41.677Z,3.12
2018-09-29T21:33:10.062Z,2.90
2018-09-29T21:35:38.425Z,4.00
2018-09-29T21:38:06.843Z,3.17
2018-09-29T21:40:35.198Z,3.40
2018-09-29T21:43:04.934Z,3.27
2018-09-29T21:45:33.414Z,3.15
2018-09-29T21:48:01.804Z,3.10
2018-09-29T21:50:30.408Z,3.12
2018-09-29T21:53:02.954Z,3.62
2018-09-29T21:55:39.676Z,3.10
2018-09-29T21:58:09.287Z,3.60
2018-09-29T22:00:45.242Z,3.98
2018-09-29T22:03:15.107Z,3.25
2018-09-29T22:05:44.000Z,3.80
2018-09-29T22:08:13.200Z,3.60
2018-09-29T22:10:41.824Z,2.90
2018-09-29T22:13:11.123Z,3.50
2018-09-29T22:15:39.526Z,2.62
2018-09-29T22:18:07.889Z,3.12
2018-09-29T22:20:36.258Z,3.20
2018-09-29T22:23:04.689Z,3.08
2018-09-29T22:25:33.065Z,3.90
2018-09-29T22:28:01.502Z,3.67
2018-09-29T22:30:29.974Z,3.45
2018-09-29T22:32:58.406Z,4.08
2018-09-29T22:35:26.849Z,3.52
2018-09-29T22:37:55.598Z,3.40
2018-09-29T22:40:24.200Z,3.42
2018-09-29T22:42:52.845Z,3.33
2018-09-29T22:45:21.325Z,3.27
2018-09-29T22:47:49.934Z,3.67
2018-09-29T22:50:18.338Z,3.42
2018-09-29T22:52:47.328Z,4.45
2018-09-29T22:55:15.965Z,4.25
2018-09-29T22:57:44.456Z,3.60
2018-09-29T23:00:12.929Z,3.30
2018-09-29T23:02:41.315Z,3.60
2018-09-29T23:05:09.691Z,3.15
2018-09-29T23:07:38.502Z,3.30
2018-09-29T23:10:06.877Z,3.60
2018-09-29T23:12:35.325Z,2.98
2018-09-29T23:15:03.845Z,3.58
2018-09-29T23:17:32.203Z,2.70
2018-09-29T23:20:00.623Z,4.08
2018-09-29T23:22:29.578Z,3.60
2018-09-29T23:24:57.988Z,3.30
2018-09-29T23:27:26.375Z,3.12
2018-09-29T23:29:54.733Z,3.58
2018-09-29T23:32:24.000Z,3.08
2018-09-29T23:34:52.402Z,2.92
2018-09-29T23:37:20.723Z,3.15
2018-09-29T23:39:49.102Z,3.33
2018-09-29T23:42:17.482Z,5.00
2018-09-29T23:44:45.930Z,3.40
2018-09-29T23:47:14.341Z,3.25
2018-09-29T23:49:42.718Z,3.98
2018-09-29T23:52:11.227Z,3.15
2018-09-29T23:54:39.728Z,3.50
2018-09-29T23:57:08.818Z,3.37
2018-09-29T23:59:37.259Z,3.30
